createdAt,value
2022-12-15T00:01:49.725Z,59.09
2022-12-15T00:04:34.538Z,58.77
2022-12-15T00:07:19.242Z,59.33
2022-12-15T00:10:04.376Z,59.29
2022-12-15T00:12:49.237Z,59.07
2022-12-15T00:15:34.068Z,59.07
2022-12-15T00:18:25.963Z,59.37
2022-12-15T00:21:15.366Z,59.32
2022-12-15T00:24:00.083Z,58.98
2022-12-15T00:26:44.883Z,59.38
2022-12-15T00:29:29.588Z,59.46
2022-12-15T00:32:14.252Z,59.53
2022-12-15T00:34:59.199Z,59.33
2022-12-15T00:37:44.100Z,59.39
2022-12-15T00:40:11.058Z,59.49
2022-12-15T00:42:37.517Z,59.67
2022-12-15T00:45:04.134Z,59.93
2022-12-15T00:47:32.438Z,59.40
2022-12-15T00:50:17.894Z,59.34
2022-12-15T00:53:03.327Z,59.59
2022-12-15T00:55:48.112Z,59.34
2022-12-15T00:58:32.888Z,59.64
2022-12-15T01:01:24.897Z,59.63
2022-12-15T01:04:10.128Z,59.04
2022-12-15T01:06:55.201Z,59.40
2022-12-15T01:09:39.870Z,59.49
2022-12-15T01:12:25.161Z,59.77
2022-12-15T01:15:09.924Z,59.18
2022-12-15T01:17:54.683Z,59.74
2022-12-15T01:20:21.222Z,59.27
2022-12-15T01:22:54.029Z,59.05
2022-12-15T01:25:23.255Z,59.88
2022-12-15T01:27:50.381Z,59.48
2022-12-15T01:30:23.200Z,59.86
2022-12-15T01:32:49.922Z,59.65
2022-12-15T01:35:17.611Z,59.87
2022-12-15T01:37:44.474Z,59.43
2022-12-15T01:40:35.608Z,59.82
2022-12-15T01:43:02.145Z,59.22
2022-12-15T01:45:28.384Z,59.73
2022-12-15T01:48:09.217Z,59.91
2022-12-15T01:50:42.183Z,59.57
2022-12-15T01:53:09.475Z,59.68
2022-12-15T01:55:36.854Z,59.56
2022-12-15T01:58:06.802Z,59.84
2022-12-15T02:00:34.134Z,59.53
2022-12-15T02:03:02.008Z,59.67
2022-12-15T02:05:31.657Z,59.46
2022-12-15T02:08:00.948Z,60.20
2022-12-15T02:10:42.393Z,59.61
2022-12-15T02:14:04.181Z,59.90
2022-12-15T02:17:29.472Z,60.14
2022-12-15T02:20:43.946Z,60.73
2022-12-15T02:23:41.229Z,60.33
2022-12-15T02:26:38.219Z,59.86
2022-12-15T02:29:36.018Z,60.12
2022-12-15T02:32:14.898Z,60.26
2022-12-15T02:34:57.465Z,59.85
2022-12-15T02:37:31.712Z,60.11
2022-12-15T02:39:58.153Z,59.95
2022-12-15T02:42:28.406Z,60.37
2022-12-15T02:45:09.981Z,59.81
2022-12-15T02:47:46.156Z,60.20
2022-12-15T02:50:37.253Z,60.75
2022-12-15T02:53:34.354Z,60.71
2022-12-15T02:56:29.888Z,60.04
2022-12-15T02:59:02.017Z,60.30
2022-12-15T03:01:36.782Z,60.66
2022-12-15T03:04:07.328Z,60.01
2022-12-15T03:06:33.784Z,60.75
2022-12-15T03:09:00.125Z,60.87
2022-12-15T03:11:26.956Z,61.18
2022-12-15T03:13:54.060Z,60.40
2022-12-15T03:16:21.153Z,60.76
2022-12-15T03:18:47.684Z,60.58
2022-12-15T03:21:14.170Z,60.55
2022-12-15T03:23:40.576Z,60.52
2022-12-15T03:26:06.935Z,61.12
2022-12-15T03:28:34.055Z,60.94
2022-12-15T03:31:00.415Z,60.90
2022-12-15T03:33:26.774Z,61.19
2022-12-15T03:35:53.065Z,61.23
2022-12-15T03:38:19.406Z,61.01
2022-12-15T03:40:45.750Z,60.81
2022-12-15T03:43:12.171Z,60.71
2022-12-15T03:45:38.567Z,60.88
2022-12-15T03:48:05.019Z,60.68
2022-12-15T03:50:31.373Z,60.67
2022-12-15T03:53:02.507Z,60.87
2022-12-15T03:55:29.468Z,60.78
2022-12-15T03:57:56.268Z,60.47
2022-12-15T04:00:24.601Z,60.80
2022-12-15T04:02:51.654Z,60.67
2022-12-15T04:05:22.585Z,61.05
2022-12-15T04:07:48.906Z,60.55
2022-12-15T04:10:15.473Z,60.60
2022-12-15T04:12:41.925Z,60.57
2022-12-15T04:15:10.334Z,60.70
2022-12-15T04:17:36.938Z,60.50
2022-12-15T04:20:10.256Z,60.45
2022-12-15T04:22:42.021Z,60.57
2022-12-15T04:25:30.109Z,60.73
2022-12-15T04:28:14.941Z,60.76
2022-12-15T04:31:04.303Z,60.48
2022-12-15T04:33:50.170Z,60.63
2022-12-15T04:36:35.363Z,60.28
2022-12-15T04:39:22.966Z,60.78
2022-12-15T04:42:08.278Z,60.15
2022-12-15T04:44:53.315Z,61.02
2022-12-15T04:47:38.092Z,60.52
2022-12-15T04:50:23.314Z,60.72
2022-12-15T04:53:07.975Z,60.19
2022-12-15T04:55:56.363Z,60.57
2022-12-15T04:58:41.595Z,60.80
2022-12-15T05:01:26.455Z,60.87
2022-12-15T05:04:11.628Z,60.28
2022-12-15T05:06:56.400Z,60.34
2022-12-15T05:09:41.165Z,60.41
2022-12-15T05:12:25.973Z,60.51
2022-12-15T05:15:10.788Z,60.52
2022-12-15T05:17:55.567Z,60.60
2022-12-15T05:20:40.503Z,60.49
2022-12-15T05:23:25.195Z,60.71
2022-12-15T05:26:10.123Z,60.82
2022-12-15T05:28:54.845Z,60.36
2022-12-15T05:31:39.708Z,60.75
2022-12-15T05:34:06.887Z,60.73
2022-12-15T05:36:33.285Z,60.48
2022-12-15T05:38:59.630Z,60.54
2022-12-15T05:41:25.977Z,60.89
2022-12-15T05:43:52.393Z,61.00
2022-12-15T05:46:19.866Z,61.33
2022-12-15T05:48:46.356Z,60.54
2022-12-15T05:51:13.297Z,61.27
2022-12-15T05:53:40.893Z,61.18
2022-12-15T05:56:13.222Z,61.40
2022-12-15T05:58:45.192Z,61.35
2022-12-15T06:01:15.365Z,60.89
2022-12-15T06:03:42.363Z,60.67
2022-12-15T06:06:10.158Z,61.03
2022-12-15T06:08:39.322Z,60.36
2022-12-15T06:11:06.201Z,60.91
2022-12-15T06:13:35.361Z,60.93
2022-12-15T06:16:05.000Z,61.13
2022-12-15T06:18:37.440Z,60.87
2022-12-15T06:21:06.978Z,60.60
2022-12-15T06:23:34.553Z,61.20
2022-12-15T06:26:12.515Z,60.92
2022-12-15T06:28:38.883Z,61.01
2022-12-15T06:31:07.394Z,60.90
2022-12-15T06:33:34.517Z,61.47
2022-12-15T06:36:07.069Z,60.94
2022-12-15T06:38:33.867Z,61.15
2022-12-15T06:41:01.341Z,60.88
2022-12-15T06:43:28.964Z,60.94
2022-12-15T06:45:56.126Z,61.54
2022-12-15T06:48:23.783Z,60.84
2022-12-15T06:50:51.195Z,61.09
2022-12-15T06:53:19.365Z,61.25
2022-12-15T06:55:46.291Z,61.24
2022-12-15T06:58:13.996Z,61.25
2022-12-15T07:00:45.462Z,61.24
2022-12-15T07:03:18.238Z,60.92
2022-12-15T07:05:45.554Z,60.96
2022-12-15T07:08:16.483Z,61.20
2022-12-15T07:10:44.609Z,60.59
2022-12-15T07:13:12.454Z,61.27
2022-12-15T07:15:39.726Z,61.20
2022-12-15T07:18:06.614Z,60.97
2022-12-15T07:20:33.366Z,61.55
2022-12-15T07:23:00.646Z,60.99
2022-12-15T07:25:26.985Z,60.97
2022-12-15T07:27:53.285Z,61.38
2022-12-15T07:30:19.626Z,61.26
2022-12-15T07:32:50.177Z,61.36
2022-12-15T07:35:17.839Z,61.44
2022-12-15T07:37:44.159Z,61.66
2022-12-15T07:40:11.017Z,61.39
2022-12-15T07:42:37.410Z,61.33
2022-12-15T07:45:05.413Z,61.76
2022-12-15T07:47:32.107Z,61.83
2022-12-15T07:49:58.719Z,61.85
2022-12-15T07:52:25.336Z,61.62
2022-12-15T07:54:51.729Z,61.42
2022-12-15T07:57:18.464Z,61.64
2022-12-15T07:59:44.849Z,61.79
2022-12-15T08:02:12.473Z,62.11
2022-12-15T08:04:40.029Z,61.89
2022-12-15T08:07:07.072Z,61.56
2022-12-15T08:09:33.414Z,61.99
2022-12-15T08:11:59.767Z,62.01
2022-12-15T08:14:26.208Z,61.63
2022-12-15T08:16:52.621Z,61.78
2022-12-15T08:19:19.145Z,61.77
2022-12-15T08:21:46.753Z,61.79
2022-12-15T08:24:14.192Z,61.99
2022-12-15T08:26:42.060Z,62.14
2022-12-15T08:31:58.528Z,61.91
2022-12-15T08:34:24.997Z,61.88
2022-12-15T08:36:54.446Z,62.29
2022-12-15T08:39:29.869Z,62.45
2022-12-15T08:41:56.185Z,61.95
2022-12-15T08:44:22.745Z,62.36
2022-12-15T08:46:49.044Z,62.67
2022-12-15T08:49:21.516Z,62.73
2022-12-15T08:51:50.000Z,62.71
2022-12-15T08:54:17.125Z,62.33
2022-12-15T08:56:43.457Z,61.87
2022-12-15T08:59:09.935Z,62.70
2022-12-15T09:01:40.085Z,62.52
2022-12-15T09:04:06.722Z,62.44
2022-12-15T09:06:35.397Z,62.67
2022-12-15T09:09:07.703Z,62.61
2022-12-15T09:11:34.595Z,62.57
2022-12-15T09:14:01.097Z,62.73
2022-12-15T09:16:28.249Z,62.57
2022-12-15T09:18:57.081Z,62.77
2022-12-15T09:21:26.168Z,62.23
2022-12-15T09:23:57.620Z,62.21
2022-12-15T09:26:24.022Z,62.45
2022-12-15T09:28:51.165Z,61.92
2022-12-15T09:31:21.915Z,62.42
2022-12-15T09:33:50.436Z,62.83
2022-12-15T09:36:16.922Z,62.61
2022-12-15T09:38:44.014Z,62.47
2022-12-15T09:41:13.320Z,62.73
2022-12-15T09:44:03.129Z,63.05
2022-12-15T09:46:50.297Z,62.49
2022-12-15T09:49:35.431Z,62.48
2022-12-15T09:52:14.426Z,61.94
2022-12-15T09:54:43.408Z,61.90
2022-12-15T09:57:56.064Z,62.40
2022-12-15T10:00:36.907Z,62.35
2022-12-15T10:03:45.211Z,62.17
2022-12-15T10:06:18.447Z,62.15
2022-12-15T10:08:55.860Z,62.25
2022-12-15T10:11:35.798Z,62.20
2022-12-15T10:14:15.512Z,61.88
2022-12-15T10:17:21.433Z,61.97
2022-12-15T10:20:03.297Z,61.80
2022-12-15T10:22:39.032Z,61.65
2022-12-15T10:25:30.452Z,61.71
2022-12-15T10:28:15.708Z,61.49
2022-12-15T10:31:00.059Z,61.71
2022-12-15T10:33:33.295Z,61.43
2022-12-15T10:36:00.123Z,61.89
2022-12-15T10:38:40.458Z,61.96
2022-12-15T10:41:12.308Z,61.63
2022-12-15T10:43:41.848Z,61.93
2022-12-15T10:46:13.812Z,61.50
2022-12-15T10:48:43.971Z,61.41
2022-12-15T10:51:31.500Z,61.51
2022-12-15T10:54:04.466Z,61.69
2022-12-15T10:56:33.890Z,61.53
2022-12-15T10:59:39.385Z,61.86
2022-12-15T11:02:25.079Z,61.43
2022-12-15T11:04:59.470Z,61.80
2022-12-15T11:07:46.053Z,61.49
2022-12-15T11:10:21.557Z,61.69
2022-12-15T11:13:10.376Z,61.64
2022-12-15T11:15:51.639Z,61.87
2022-12-15T11:18:21.021Z,61.35
2022-12-15T11:20:54.405Z,61.79
2022-12-15T11:23:34.193Z,61.79
2022-12-15T11:26:07.429Z,61.27
2022-12-15T11:29:00.223Z,61.17
2022-12-15T11:31:33.404Z,61.49
2022-12-15T11:33:59.844Z,60.88
2022-12-15T11:36:53.790Z,61.02
2022-12-15T11:39:32.292Z,61.02
2022-12-15T11:42:22.469Z,60.93
2022-12-15T11:45:03.085Z,61.28
2022-12-15T11:47:55.596Z,61.26
2022-12-15T11:50:41.075Z,61.15
2022-12-15T11:53:18.578Z,60.89
2022-12-15T11:56:16.011Z,60.73
2022-12-15T11:59:17.568Z,61.06
2022-12-15T12:02:05.715Z,60.89
2022-12-15T12:05:19.885Z,60.76
2022-12-15T12:07:58.115Z,60.74
2022-12-15T12:10:40.007Z,60.74
2022-12-15T12:13:34.063Z,60.89
2022-12-15T12:16:26.942Z,60.82
2022-12-15T12:19:51.991Z,60.67
2022-12-15T12:22:29.983Z,60.47
2022-12-15T12:25:03.519Z,60.52
2022-12-15T12:27:42.844Z,60.61
2022-12-15T12:30:18.501Z,60.64
2022-12-15T12:32:50.934Z,60.61
2022-12-15T12:35:31.054Z,60.43
2022-12-15T12:38:03.866Z,60.62
2022-12-15T12:40:55.827Z,60.91
2022-12-15T12:43:38.146Z,60.41
2022-12-15T12:46:25.447Z,60.42
2022-12-15T12:49:11.358Z,60.48
2022-12-15T12:51:41.341Z,60.59
2022-12-15T12:54:33.557Z,60.31
2022-12-15T12:57:00.953Z,60.45
2022-12-15T12:59:30.377Z,60.31
2022-12-15T13:02:15.218Z,60.27
2022-12-15T13:04:44.322Z,60.29
2022-12-15T13:07:29.299Z,60.30
2022-12-15T13:10:07.802Z,60.18
2022-12-15T13:12:53.200Z,60.25
2022-12-15T13:15:35.800Z,60.20
2022-12-15T13:18:25.171Z,60.21
2022-12-15T13:20:55.275Z,60.09
2022-12-15T13:23:21.630Z,59.93
2022-12-15T13:25:57.125Z,60.18
2022-12-15T13:28:45.568Z,60.02
2022-12-15T13:31:21.717Z,59.70
2022-12-15T13:33:51.249Z,59.82
2022-12-15T13:36:36.437Z,59.89
2022-12-15T13:39:23.044Z,59.99
2022-12-15T13:44:43.879Z,59.89
2022-12-15T13:47:25.045Z,59.99
2022-12-15T13:55:39.151Z,59.99
2022-12-15T13:58:19.289Z,60.08
2022-12-15T14:00:58.037Z,59.79
2022-12-15T14:03:25.825Z,59.94
2022-12-15T14:05:55.285Z,59.81
2022-12-15T14:08:23.977Z,59.95
2022-12-15T14:10:54.620Z,59.90
2022-12-15T14:13:24.945Z,59.87
2022-12-15T14:15:58.105Z,59.94
2022-12-15T14:18:30.502Z,59.88
2022-12-15T14:20:58.562Z,59.69
2022-12-15T14:23:38.362Z,59.66
2022-12-15T14:26:08.435Z,59.95
2022-12-15T14:28:36.856Z,59.71
2022-12-15T14:31:17.486Z,59.72
2022-12-15T14:33:46.780Z,59.80
2022-12-15T14:36:20.386Z,59.68
2022-12-15T14:39:18.251Z,59.89
2022-12-15T14:41:49.198Z,59.47
2022-12-15T14:44:31.906Z,59.55
2022-12-15T14:47:16.499Z,59.54
2022-12-15T14:49:45.313Z,59.80
2022-12-15T14:52:27.052Z,59.49
2022-12-15T14:55:02.191Z,59.82
2022-12-15T14:57:41.114Z,59.63
2022-12-15T15:00:32.429Z,59.51
2022-12-15T15:03:07.607Z,59.94
2022-12-15T15:06:01.189Z,59.47
2022-12-15T15:08:32.613Z,59.60
2022-12-15T15:11:04.630Z,59.76
2022-12-15T15:13:40.850Z,59.55
2022-12-15T15:16:15.660Z,59.40
2022-12-15T15:18:43.279Z,59.33
2022-12-15T15:21:21.388Z,59.75
2022-12-15T15:24:11.944Z,59.96
2022-12-15T15:26:44.095Z,59.86
2022-12-15T15:29:32.213Z,59.99
2022-12-15T15:32:22.382Z,59.85
2022-12-15T15:34:49.659Z,59.99
2022-12-15T15:37:22.568Z,59.89
2022-12-15T15:39:50.407Z,60.13
2022-12-15T15:42:17.963Z,59.84
2022-12-15T15:44:47.050Z,60.21
2022-12-15T15:47:25.476Z,60.18
2022-12-15T15:49:58.161Z,60.00
2022-12-15T15:52:29.893Z,60.31
2022-12-15T15:54:56.334Z,60.26
2022-12-15T15:57:22.687Z,60.44
2022-12-15T15:59:49.106Z,60.67
2022-12-15T16:02:18.452Z,60.59
2022-12-15T16:04:45.567Z,60.80
2022-12-15T16:07:26.756Z,60.56
2022-12-15T16:09:53.784Z,60.76
2022-12-15T16:12:50.122Z,60.89
2022-12-15T16:15:21.375Z,61.07
2022-12-15T16:17:47.795Z,60.83
2022-12-15T16:20:17.217Z,60.62
2022-12-15T16:22:47.100Z,60.70
2022-12-15T16:25:25.790Z,61.16
2022-12-15T16:27:52.196Z,60.91
2022-12-15T16:30:23.321Z,60.82
2022-12-15T16:32:50.477Z,61.26
2022-12-15T16:35:17.810Z,61.38
2022-12-15T16:37:49.075Z,61.38
2022-12-15T16:40:25.342Z,61.38
2022-12-15T16:42:54.009Z,61.15
2022-12-15T16:45:21.882Z,60.99
2022-12-15T16:47:48.626Z,61.20
2022-12-15T16:50:18.443Z,61.04
2022-12-15T16:52:47.536Z,61.24
2022-12-15T16:55:24.008Z,61.05
2022-12-15T16:57:51.876Z,61.03
2022-12-15T17:00:23.324Z,61.39
2022-12-15T17:02:49.923Z,61.43
2022-12-15T17:05:17.199Z,61.56
2022-12-15T17:07:47.817Z,61.56
2022-12-15T17:10:33.387Z,61.25
2022-12-15T17:13:13.175Z,61.49
2022-12-15T17:15:40.091Z,61.57
2022-12-15T17:18:06.851Z,61.09
2022-12-15T17:20:33.418Z,61.25
2022-12-15T17:23:04.110Z,61.23
2022-12-15T17:26:09.719Z,61.73
2022-12-15T17:28:26.795Z,61.27
2022-12-15T17:30:54.104Z,61.62
2022-12-15T17:33:24.096Z,61.57
2022-12-15T17:35:54.253Z,61.65
2022-12-15T17:38:22.594Z,61.27
2022-12-15T17:40:51.656Z,61.39
2022-12-15T17:43:28.171Z,61.73
2022-12-15T17:45:58.337Z,61.61
2022-12-15T17:48:25.285Z,61.60
2022-12-15T17:50:53.502Z,61.58
2022-12-15T17:53:22.351Z,61.48
2022-12-15T17:55:49.786Z,61.47
2022-12-15T17:58:22.226Z,61.97
2022-12-15T18:00:51.781Z,61.99
2022-12-15T18:03:22.737Z,61.42
2022-12-15T18:05:52.926Z,61.46
2022-12-15T18:08:23.455Z,61.68
2022-12-15T18:10:53.336Z,61.69
2022-12-15T18:13:35.453Z,61.54
2022-12-15T18:16:02.139Z,61.71
2022-12-15T18:18:28.753Z,61.59
2022-12-15T18:21:00.229Z,61.68
2022-12-15T18:23:30.904Z,61.79
2022-12-15T18:26:02.848Z,61.47
2022-12-15T18:28:32.345Z,61.88
2022-12-15T18:31:06.645Z,62.18
2022-12-15T18:33:33.625Z,61.66
2022-12-15T18:36:00.329Z,62.34
2022-12-15T18:38:28.691Z,61.88
2022-12-15T18:40:58.183Z,61.89
2022-12-15T18:43:28.777Z,62.01
2022-12-15T18:45:55.969Z,61.85
2022-12-15T18:48:28.544Z,61.98
2022-12-15T18:50:57.138Z,62.20
2022-12-15T18:53:30.832Z,61.82
2022-12-15T18:56:00.580Z,62.27
2022-12-15T18:58:29.597Z,62.10
2022-12-15T19:00:58.331Z,62.16
2022-12-15T19:03:26.338Z,61.84
2022-12-15T19:06:00.116Z,61.71
2022-12-15T19:08:28.193Z,62.06
2022-12-15T19:10:57.085Z,61.93
2022-12-15T19:13:28.607Z,62.06
2022-12-15T19:15:55.521Z,61.86
2022-12-15T19:18:42.860Z,62.29
2022-12-15T19:21:38.532Z,61.73
2022-12-15T19:24:07.409Z,61.98
2022-12-15T19:26:33.747Z,61.71
2022-12-15T19:29:00.275Z,61.65
2022-12-15T19:31:26.729Z,61.45
2022-12-15T19:33:53.326Z,61.75
2022-12-15T19:36:25.708Z,61.82
2022-12-15T19:38:54.800Z,61.76
2022-12-15T19:41:21.441Z,61.75
2022-12-15T19:43:47.969Z,61.89
2022-12-15T19:46:17.678Z,62.06
2022-12-15T19:48:44.460Z,61.71
2022-12-15T19:51:13.421Z,61.64
2022-12-15T19:53:40.661Z,61.85
2022-12-15T19:56:07.831Z,62.16
2022-12-15T19:58:35.386Z,61.94
2022-12-15T20:01:06.188Z,62.20
2022-12-15T20:03:34.322Z,61.71
2022-12-15T20:06:02.706Z,62.19
2022-12-15T20:08:38.100Z,62.09
2022-12-15T20:11:05.051Z,61.93
2022-12-15T20:13:31.905Z,61.11
2022-12-15T20:15:58.574Z,61.08
2022-12-15T20:18:24.967Z,61.35
2022-12-15T20:20:51.419Z,61.17
2022-12-15T20:23:21.239Z,61.31
2022-12-15T20:25:47.880Z,61.23
2022-12-15T20:28:18.986Z,61.10
2022-12-15T20:30:46.232Z,60.95
2022-12-15T20:33:13.082Z,61.14
2022-12-15T20:35:40.478Z,61.44
2022-12-15T20:38:24.982Z,61.41
2022-12-15T20:40:52.508Z,61.92
2022-12-15T20:43:21.582Z,61.88
2022-12-15T20:45:54.761Z,61.83
2022-12-15T20:48:24.636Z,61.77
2022-12-15T20:50:51.047Z,62.17
2022-12-15T20:53:19.940Z,62.23
2022-12-15T20:55:48.202Z,61.62
2022-12-15T20:58:15.229Z,61.11
2022-12-15T21:00:42.103Z,60.94
2022-12-15T21:03:27.962Z,61.46
2022-12-15T21:05:56.515Z,60.70
2022-12-15T21:08:27.303Z,61.02
2022-12-15T21:11:00.069Z,60.88
2022-12-15T21:13:30.066Z,61.25
2022-12-15T21:15:56.718Z,61.24
2022-12-15T21:19:03.956Z,61.11
2022-12-15T21:21:18.644Z,61.33
2022-12-15T21:23:45.681Z,61.41
2022-12-15T21:26:20.223Z,61.46
2022-12-15T21:28:48.693Z,61.19
2022-12-15T21:31:16.508Z,61.41
2022-12-15T21:33:43.275Z,61.41
2022-12-15T21:36:16.700Z,61.85
2022-12-15T21:38:45.802Z,62.48
2022-12-15T21:41:15.497Z,62.69
2022-12-15T21:43:42.817Z,62.13
2022-12-15T21:46:19.051Z,62.38
2022-12-15T21:49:06.261Z,62.34
2022-12-15T21:51:37.274Z,61.70
2022-12-15T21:54:05.093Z,61.51
2022-12-15T21:56:32.012Z,61.24
2022-12-15T21:58:59.008Z,61.64
2022-12-15T22:01:29.754Z,61.28
2022-12-15T22:03:58.453Z,61.19
2022-12-15T22:06:27.921Z,61.54
2022-12-15T22:08:58.508Z,61.77
2022-12-15T22:11:28.136Z,61.04
2022-12-15T22:13:55.855Z,61.69
2022-12-15T22:16:23.003Z,61.55
2022-12-15T22:18:58.613Z,61.40
2022-12-15T22:21:25.648Z,61.68
2022-12-15T22:23:52.283Z,61.42
2022-12-15T22:26:24.339Z,61.33
2022-12-15T22:28:51.571Z,61.28
2022-12-15T22:31:18.497Z,61.93
2022-12-15T22:33:44.934Z,62.16
2022-12-15T22:36:11.368Z,61.63
2022-12-15T22:38:37.836Z,61.79
2022-12-15T22:41:05.673Z,62.22
2022-12-15T22:43:40.826Z,62.30
2022-12-15T22:46:12.283Z,62.17
2022-12-15T22:48:42.067Z,62.24
2022-12-15T22:51:12.957Z,62.43
2022-12-15T22:53:39.445Z,62.28
2022-12-15T22:56:15.918Z,61.84
2022-12-15T22:58:47.114Z,61.66
2022-12-15T23:01:13.750Z,61.75
2022-12-15T23:03:40.121Z,62.01
2022-12-15T23:06:06.839Z,62.55
2022-12-15T23:08:33.162Z,61.96
2022-12-15T23:11:18.949Z,62.45
2022-12-15T23:13:45.198Z,62.77
2022-12-15T23:16:21.652Z,62.09
2022-12-15T23:18:50.636Z,62.66
2022-12-15T23:21:18.988Z,62.58
2022-12-15T23:23:45.703Z,62.40
2022-12-15T23:26:13.009Z,62.29
2022-12-15T23:28:40.470Z,61.75
2022-12-15T23:31:07.520Z,61.77
2022-12-15T23:33:34.750Z,61.71
2022-12-15T23:36:02.228Z,61.52
2022-12-15T23:38:29.404Z,61.28
2022-12-15T23:40:56.902Z,61.64
2022-12-15T23:43:25.118Z,62.03
2022-12-15T23:46:05.573Z,61.55
2022-12-15T23:48:34.917Z,61.62
2022-12-15T23:51:05.976Z,61.34
2022-12-15T23:53:33.305Z,61.87
2022-12-15T23:56:11.496Z,61.61
2022-12-15T23:58:39.491Z,61.49
